Time;durP1;ratioP1;P1;durP2;ratioP2;P2;SDS_P1;SDS_P2;PMS_P1;PMS_P2;Temp;Humidity;BMP_temperature;BMP_pressure;BME280_temperature;BME280_humidity;BME280_pressure;Samples;Min_cycle;Max_cycle;Signal;HPM_P1;HPM_P2
2021/03/29 05:03:20;;;;;;;38.90;20.55;;;;;;;3.50;100.00;101918.04;1739689;82;21140;-84
2021/03/29 05:05:56;;;;;;;51.35;22.82;;;;;;;3.56;100.00;101911.48;1727616;82;22120;-83
2021/03/29 05:12:47;;;;;;;30.12;19.20;;;;;;;3.75;100.00;101913.97;1724075;83;21150;-84
2021/03/29 05:19:31;;;;;;;30.52;17.45;;;;;;;4.00;100.00;101924.09;1723515;82;21158;-84
2021/03/29 05:26:26;;;;;;;29.32;18.42;;;;;;;3.84;100.00;101914.63;1715573;83;21139;-87
2021/03/29 05:33:18;;;;;;;26.68;16.75;;;;;;;3.94;100.00;101930.25;1715533;83;21156;-85
2021/03/29 05:40:17;;;;;;;34.55;17.20;;;;;;;4.28;100.00;101931.07;1715671;83;21155;-86
2021/03/29 05:46:50;;;;;;;37.45;18.27;;;;;;;4.42;100.00;101929.81;1707749;81;21594;-84
2021/03/29 05:53:42;;;;;;;29.63;19.00;;;;;;;4.64;100.00;101942.55;1720716;83;21574;-85
2021/03/29 06:00:39;;;;;;;26.37;17.55;;;;;;;4.68;100.00;101945.42;1692662;81;21603;-84
2021/03/29 06:03:36;;;;;;;25.43;16.45;;;;;;;4.78;100.00;101944.70;1737827;82;21185;-88
2021/03/29 06:11:02;;;;;;;36.23;20.45;;;;;;;4.87;100.00;101943.14;1724623;81;21776;-89
2021/03/29 06:17:21;;;;;;;33.92;23.07;;;;;;;5.03;100.00;101949.53;1709999;82;21209;-87
2021/03/29 06:24:14;;;;;;;36.00;23.22;;;;;;;5.05;100.00;101947.76;1710200;84;21605;-88
2021/03/29 06:31:29;;;;;;;39.70;21.75;;;;;;;5.17;100.00;101954.71;1716597;81;21142;-88
2021/03/29 06:34:32;;;;;;;28.25;19.25;;;;;;;5.29;100.00;101953.52;1704678;82;21606;-88
2021/03/29 06:41:29;;;;;;;40.98;23.12;;;;;;;5.55;100.00;101956.98;1710111;84;21134;-88
2021/03/29 06:48:03;;;;;;;34.90;20.90;;;;;;;5.74;100.00;101960.66;1711171;82;21130;-89
2021/03/29 06:55:17;;;;;;;34.60;21.15;;;;;;;5.89;100.00;101964.45;1674490;85;21583;-88
2021/03/29 07:07:03;;;;;;;30.10;20.90;;;;;;;6.43;100.00;101961.33;1708231;84;21130;-88
2021/03/29 07:13:58;;;;;;;29.30;21.00;;;;;;;6.87;100.00;101957.98;1708765;83;21166;-88
2021/03/29 07:20:25;;;;;;;32.00;20.00;;;;;;;7.31;100.00;101963.62;1673543;85;21179;-88
2021/03/29 07:27:16;;;;;;;26.00;19.07;;;;;;;7.70;100.00;101964.67;1709969;84;21392;-88
2021/03/29 07:30:17;;;;;;;25.00;16.52;;;;;;;7.96;100.00;101959.69;1710038;84;21131;-88
2021/03/29 07:45:14;;;;;;;23.87;15.60;;;;;;;8.95;100.00;101955.77;1690348;84;21182;-89
2021/03/29 07:51:50;;;;;;;17.90;12.95;;;;;;;9.49;94.96;101960.17;1716961;83;21619;-88
2021/03/29 08:03:16;;;;;;;15.85;12.03;;;;;;;10.04;95.46;101956.10;1716654;82;21134;-89
2021/03/29 08:14:26;;;;;;;16.37;12.25;;;;;;;10.65;83.01;101954.27;1720053;81;21151;-87
2021/03/29 08:24:55;;;;;;;21.42;13.68;;;;;;;10.94;74.07;101956.56;1689845;84;21178;-88
2021/03/29 08:32:09;;;;;;;15.70;11.40;;;;;;;11.08;71.83;101957.11;1709964;84;21154;-89
2021/03/29 08:43:40;;;;;;;16.15;11.12;;;;;;;11.47;64.71;101952.33;1681510;85;21150;-89
2021/03/29 08:50:17;;;;;;;13.70;10.50;;;;;;;11.53;71.00;101954.58;1662474;86;21167;-88
2021/03/29 08:57:09;;;;;;;15.78;11.70;;;;;;;11.72;69.08;101958.26;1701633;83;21154;-88
2021/03/29 09:04:05;;;;;;;15.68;12.18;;;;;;;11.86;63.45;101956.14;1683317;83;21154;-88
2021/03/29 09:11:01;;;;;;;16.05;12.95;;;;;;;12.13;65.64;101943.24;1687765;83;21150;-88
2021/03/29 09:44:30;;;;;;;14.53;11.95;;;;;;;11.96;62.57;101950.77;1695470;84;21703;-89
2021/03/29 09:55:11;;;;;;;12.85;10.60;;;;;;;12.77;62.10;101955.04;1658462;83;21244;-90
2021/03/29 09:58:30;;;;;;;18.05;13.10;;;;;;;12.52;59.01;101958.33;1636656;85;21215;-90
2021/03/29 10:01:48;;;;;;;25.08;13.70;;;;;;;12.29;59.01;101960.14;1646113;84;21186;-90
2021/03/29 10:11:51;;;;;;;16.93;12.68;;;;;;;12.03;62.74;101980.45;1628436;87;21180;-90
2021/03/29 10:18:34;;;;;;;16.12;12.88;;;;;;;11.73;62.82;101981.30;1629670;86;21244;-89
2021/03/29 10:25:25;;;;;;;16.35;12.55;;;;;;;11.52;66.75;101977.68;1648530;85;21270;-89
2021/03/29 10:32:12;;;;;;;18.20;12.75;;;;;;;11.32;67.83;101969.24;1615428;87;21189;-88
2021/03/29 10:34:43;;;;;;;20.12;13.15;;;;;;;11.23;71.04;101974.97;1650385;85;21700;-91
2021/03/29 10:44:54;;;;;;;17.82;13.85;;;;;;;11.57;63.43;101975.67;1629315;86;21225;-88
2021/03/29 10:55:07;;;;;;;20.65;12.78;;;;;;;11.41;62.32;101977.47;1551754;92;21206;-88
2021/03/29 11:02:00;;;;;;;22.02;11.00;;;;;;;11.74;58.46;101978.59;1616320;88;21117;-87
2021/03/29 11:08:19;;;;;;;18.32;10.88;;;;;;;12.16;61.35;101974.84;1625813;86;21375;-88
2021/03/29 11:11:25;;;;;;;17.98;12.00;;;;;;;12.50;61.18;101976.72;1621147;86;21653;-88
2021/03/29 11:21:30;;;;;;;20.45;12.60;;;;;;;12.11;56.03;101988.66;1606006;88;21184;-90
2021/03/29 11:27:49;;;;;;;13.55;10.45;;;;;;;11.81;56.72;101976.47;1644160;85;21137;-90
2021/03/29 11:30:55;;;;;;;15.05;12.13;;;;;;;11.64;57.54;101986.13;1616148;85;21402;-90
2021/03/29 11:37:14;;;;;;;12.73;9.90;;;;;;;11.55;55.36;101985.78;1638879;84;21367;-90
2021/03/29 11:40:14;;;;;;;16.48;11.78;;;;;;;11.84;55.03;101974.97;1645061;85;21161;-90
2021/03/29 11:46:47;;;;;;;15.28;9.58;;;;;;;12.17;54.36;101975.23;1644287;85;21693;-91
2021/03/29 11:49:52;;;;;;;14.75;9.88;;;;;;;12.21;53.93;101975.44;1460280;95;21209;-90
2021/03/29 13:28:51;;;;;;;15.78;10.25;;;;;;;11.91;46.80;102005.47;1808846;77;21182;-92
2021/03/29 13:35:42;;;;;;;10.55;8.45;;;;;;;11.97;48.03;102007.30;1743971;79;21199;-90
2021/03/29 13:38:35;;;;;;;13.25;10.20;;;;;;;12.03;46.98;102007.86;1772171;79;21136;-90
2021/03/29 13:41:20;;;;;;;16.10;10.50;;;;;;;12.03;44.95;102006.06;1783741;79;21135;-90
2021/03/29 13:47:39;;;;;;;17.95;12.50;;;;;;;12.06;46.92;102008.99;1733265;81;21174;-89
2021/03/29 13:50:10;;;;;;;17.37;12.18;;;;;;;12.07;47.59;102015.86;1774546;79;21597;-89
2021/03/29 14:30:32;;;;;;;23.35;13.55;;;;;;;10.91;47.98;102035.38;1750584;81;21012;-89
2021/03/29 14:33:05;;;;;;;20.48;13.10;;;;;;;10.82;47.78;102029.73;1718883;82;21202;-91
2021/03/29 14:38:18;;;;;;;15.48;10.35;;;;;;;10.67;47.54;102031.42;1715862;82;21370;-91
2021/03/29 14:46:30;;;;;;;22.05;11.38;;;;;;;10.55;49.34;102032.91;1852588;77;22304;-90
2021/03/29 14:49:00;;;;;;;17.62;10.85;;;;;;;10.48;49.59;102043.71;1814273;78;21410;-90
2021/03/29 14:51:30;;;;;;;23.40;9.43;;;;;;;10.44;49.35;102040.90;1819709;78;22404;-90
2021/03/29 14:53:59;;;;;;;14.00;9.83;;;;;;;10.43;54.26;102048.33;1819529;78;21127;-90
2021/03/29 14:56:31;;;;;;;19.95;10.40;;;;;;;10.39;51.04;102049.77;1849020;77;21115;-90
2021/03/29 14:59:04;;;;;;;14.38;10.10;;;;;;;10.35;50.95;102052.58;1798759;79;21141;-90
2021/03/29 15:01:34;;;;;;;21.90;9.40;;;;;;;10.31;54.39;102056.28;1811418;78;21118;-91
2021/03/29 15:04:10;;;;;;;12.73;8.80;;;;;;;10.27;57.11;102060.80;1788150;77;21356;-91
2021/03/29 15:09:08;;;;;;;19.52;11.48;;;;;;;10.19;51.08;102074.19;1778426;79;20234;-91
2021/03/29 15:11:40;;;;;;;16.10;10.20;;;;;;;10.15;50.90;102077.02;1779715;78;21119;-90
2021/03/29 15:14:13;;;;;;;13.83;10.03;;;;;;;10.12;52.68;102075.89;1792803;78;21205;-91
2021/03/29 15:16:44;;;;;;;22.10;11.30;;;;;;;10.09;55.56;102082.09;1790330;80;21604;-90
2021/03/29 15:19:17;;;;;;;25.30;11.40;;;;;;;10.05;57.24;102078.80;1790303;78;21530;-91
2021/03/29 15:21:45;;;;;;;27.48;11.20;;;;;;;10.03;63.72;102085.84;1790339;80;21129;-91
2021/03/29 15:24:15;;;;;;;21.85;10.32;;;;;;;10.00;64.28;102091.18;1790395;80;21173;-91
2021/03/29 15:26:44;;;;;;;29.92;11.18;;;;;;;9.99;69.15;102089.97;1790511;79;21129;-90
2021/03/29 15:29:13;;;;;;;19.85;12.95;;;;;;;9.97;63.55;102100.46;1804164;78;21076;-91
2021/03/29 15:31:44;;;;;;;17.70;14.03;;;;;;;9.91;58.22;102105.50;1798574;78;21068;-91
2021/03/29 15:34:13;;;;;;;26.20;15.40;;;;;;;9.83;55.56;102108.06;1774113;80;21133;-90
2021/03/29 15:36:44;;;;;;;22.90;13.60;;;;;;;9.74;53.05;102118.00;1790438;80;21577;-91
2021/03/29 15:39:48;;;;;;;26.00;14.20;;;;;;;9.67;49.52;102119.68;1813362;79;21559;-91
2021/03/29 15:42:17;;;;;;;24.82;12.75;;;;;;;9.62;48.41;102121.19;1813556;79;21379;-90
2021/03/29 15:44:45;;;;;;;33.40;12.80;;;;;;;9.54;48.61;102130.64;1804872;78;21233;-90
2021/03/29 15:47:21;;;;;;;17.98;11.05;;;;;;;9.49;47.45;102133.09;1755771;81;21184;-90
2021/03/29 15:50:23;;;;;;;24.70;13.78;;;;;;;9.40;47.05;102135.64;1755779;81;21153;-90
2021/03/29 15:52:54;;;;;;;41.92;19.87;;;;;;;9.30;47.05;102136.05;1756311;80;21152;-90
2021/03/29 15:55:23;;;;;;;49.25;26.55;;;;;;;9.21;47.76;102139.54;1758335;81;21320;-90
2021/03/29 15:57:55;;;;;;;47.53;24.57;;;;;;;9.12;47.95;102142.11;1798796;79;21107;-90
2021/03/29 16:00:24;;;;;;;58.35;32.30;;;;;;;9.03;47.90;102144.64;1779328;79;21173;-90
2021/03/29 16:02:56;;;;;;;53.78;31.25;;;;;;;8.98;48.12;102150.03;1747579;81;21199;-90
2021/03/29 16:05:25;;;;;;;59.03;33.83;;;;;;;8.91;48.77;102148.62;1762578;81;21517;-90
2021/03/29 16:08:22;;;;;;;63.20;36.42;;;;;;;8.84;48.75;102155.86;1766440;80;21604;-89
2021/03/29 16:10:51;;;;;;;53.52;29.95;;;;;;;8.78;48.72;102157.39;1766208;81;21072;-88
2021/03/29 16:13:26;;;;;;;42.25;25.35;;;;;;;8.72;48.83;102165.45;1766216;78;21155;-88
2021/03/29 16:15:59;;;;;;;27.02;16.45;;;;;;;8.67;48.93;102167.41;1766134;81;21111;-89
2021/03/29 16:18:30;;;;;;;27.25;13.43;;;;;;;8.64;48.89;102168.83;1770346;79;21124;-89
2021/03/29 16:21:07;;;;;;;21.77;12.73;;;;;;;8.61;49.21;102167.68;1752891;81;21587;-89
2021/03/29 16:23:36;;;;;;;29.05;12.95;;;;;;;8.58;48.78;102168.63;1744461;80;21134;-87
2021/03/29 16:26:08;;;;;;;30.60;13.65;;;;;;;8.57;48.69;102177.79;1771187;81;21134;-88
2021/03/29 16:29:07;;;;;;;49.10;15.63;;;;;;;8.55;48.95;102174.41;1760086;80;21560;-89
2021/03/29 16:31:37;;;;;;;27.70;13.40;;;;;;;8.52;50.14;102176.68;1786845;79;21120;-89
2021/03/29 16:34:09;;;;;;;48.85;13.58;;;;;;;8.49;50.85;102185.91;1751902;80;21358;-90
2021/03/29 16:44:10;;;;;;;24.92;11.50;;;;;;;8.34;59.38;102207.64;1775756;79;21627;-88
2021/03/29 16:46:40;;;;;;;31.70;12.58;;;;;;;8.27;62.37;102211.86;1817961;77;21128;-88
2021/03/29 16:49:16;;;;;;;29.55;10.08;;;;;;;8.24;66.04;102213.27;1789320;80;21556;-89
2021/03/29 16:51:46;;;;;;;21.57;13.13;;;;;;;8.23;69.14;102216.77;1767741;80;21636;-88
2021/03/29 16:54:49;;;;;;;23.75;12.93;;;;;;;8.20;72.99;102212.11;1790369;79;21148;-88
2021/03/29 16:57:17;;;;;;;18.02;10.00;;;;;;;8.17;75.07;102221.30;1773228;81;21190;-88
2021/03/29 16:59:45;;;;;;;13.18;9.93;;;;;;;8.15;80.28;102220.97;1776288;79;21560;-88
2021/03/29 17:02:18;;;;;;;19.17;11.25;;;;;;;8.15;87.31;102220.97;1793316;79;21336;-89
2021/03/29 17:04:54;;;;;;;16.77;11.22;;;;;;;8.17;89.72;102232.14;1804738;79;21152;-88
2021/03/29 17:12:20;;;;;;;13.65;8.58;;;;;;;8.16;81.33;102239.53;1773136;81;21172;-88
2021/03/29 17:14:51;;;;;;;13.03;8.45;;;;;;;8.12;77.48;102235.35;1798744;78;21099;-88
2021/03/29 17:17:21;;;;;;;14.50;9.48;;;;;;;8.09;75.30;102240.67;1776576;79;21391;-88
2021/03/29 17:19:50;;;;;;;18.65;10.93;;;;;;;8.04;68.16;102243.45;1811917;79;21108;-88
2021/03/29 17:22:21;;;;;;;27.77;12.55;;;;;;;8.00;68.36;102243.16;1842283;77;21155;-88
2021/03/29 17:24:56;;;;;;;32.15;12.73;;;;;;;7.97;65.23;102252.38;1793608;78;21095;-88
2021/03/29 17:27:25;;;;;;;27.75;15.38;;;;;;;7.92;66.38;102251.68;1788296;80;21160;-88
2021/03/29 17:29:55;;;;;;;36.33;19.00;;;;;;;7.87;65.21;102257.90;1810435;79;22281;-88
2021/03/29 17:32:53;;;;;;;70.28;35.28;;;;;;;7.84;68.29;102256.70;1809599;79;21595;-88
2021/03/29 17:38:47;;;;;;;170.87;69.65;;;;;;;7.81;65.90;102261.16;1810467;79;21120;-88
2021/03/29 17:41:16;;;;;;;162.45;73.00;;;;;;;7.77;68.50;102268.68;1788126;79;21100;-88
2021/03/29 17:47:44;;;;;;;115.37;48.00;;;;;;;7.69;69.69;102268.48;1775967;80;21115;-88
2021/03/29 17:50:44;;;;;;;86.92;40.75;;;;;;;7.64;75.62;102282.54;1776034;80;21179;-88
2021/03/29 17:53:13;;;;;;;81.05;36.13;;;;;;;7.58;68.87;102290.91;1775991;80;21116;-88
2021/03/29 17:55:50;;;;;;;48.92;23.30;;;;;;;7.54;75.19;102287.19;1754646;80;21070;-88
2021/03/29 17:58:26;;;;;;;67.42;26.45;;;;;;;7.49;69.58;102294.28;1779705;80;21402;-88
2021/03/29 18:00:58;;;;;;;64.10;28.77;;;;;;;7.44;75.11;102298.34;1790306;79;21147;-88
2021/03/29 18:03:29;;;;;;;54.55;25.27;;;;;;;7.39;71.61;102295.91;1775385;78;21105;-88
2021/03/29 18:05:57;;;;;;;36.48;17.25;;;;;;;7.33;75.72;102297.88;1807796;79;21158;-89
2021/03/29 18:08:30;;;;;;;24.87;13.95;;;;;;;7.29;81.47;102300.16;1807695;79;21568;-88
2021/03/29 18:11:26;;;;;;;32.15;17.75;;;;;;;7.26;81.62;102306.30;1804107;79;22516;-88
2021/03/29 18:13:55;;;;;;;35.88;21.37;;;;;;;7.19;81.04;102316.02;1802374;78;21867;-88
2021/03/29 18:16:28;;;;;;;27.77;18.17;;;;;;;7.13;78.26;102313.64;1796443;78;21186;-88
2021/03/29 18:19:32;;;;;;;27.40;16.07;;;;;;;7.08;70.61;102320.73;1804291;79;21179;-88
2021/03/29 18:22:00;;;;;;;27.65;13.13;;;;;;;7.00;68.44;102326.15;1752089;80;21112;-89
2021/03/29 18:24:56;;;;;;;20.27;11.97;;;;;;;6.94;75.60;102327.19;1784534;78;22288;-88
2021/03/29 18:27:26;;;;;;;15.90;10.70;;;;;;;6.92;77.62;102329.00;1794032;79;21607;-89
2021/03/29 18:29:58;;;;;;;19.50;11.30;;;;;;;6.91;80.67;102332.48;1765178;80;21160;-89
2021/03/29 18:32:32;;;;;;;14.13;9.57;;;;;;;6.89;76.41;102336.03;1775367;80;21124;-89
2021/03/29 18:35:04;;;;;;;15.65;9.15;;;;;;;6.83;73.93;102337.06;1776934;78;21075;-89
2021/03/29 18:38:05;;;;;;;17.25;8.85;;;;;;;6.79;73.72;102335.45;1790695;78;21890;-89
2021/03/29 18:40:34;;;;;;;21.05;9.23;;;;;;;6.76;79.31;102332.98;1824005;78;21194;-89
2021/03/29 18:43:07;;;;;;;13.90;8.13;;;;;;;6.74;83.14;102326.53;1824017;78;21703;-89
2021/03/29 18:46:05;;;;;;;23.07;9.15;;;;;;;6.73;82.38;102323.54;1782917;78;21133;-89
2021/03/29 18:48:34;;;;;;;24.52;9.75;;;;;;;6.71;84.44;102329.67;1794534;79;21386;-89
2021/03/29 18:51:05;;;;;;;17.25;9.03;;;;;;;6.69;82.66;102328.43;1794493;80;21374;-89
2021/03/29 18:54:07;;;;;;;14.75;8.98;;;;;;;6.68;84.78;102334.96;1803098;79;21179;-89
2021/03/29 19:02:35;;;;;;;12.13;8.05;;;;;;;6.56;89.73;102333.59;1781095;80;21147;-88
2021/03/29 19:05:06;;;;;;;13.35;7.45;;;;;;;6.54;87.82;102331.50;1803575;78;21581;-88
2021/03/29 19:07:35;;;;;;;11.55;6.95;;;;;;;6.50;82.99;102337.22;1812891;79;21384;-88
2021/03/29 19:10:04;;;;;;;14.20;7.03;;;;;;;6.43;79.97;102338.30;1812842;78;21068;-88
2021/03/29 19:12:32;;;;;;;12.90;7.87;;;;;;;6.35;80.95;102335.09;1789494;79;21099;-88
2021/03/29 19:15:31;;;;;;;11.12;7.33;;;;;;;6.29;80.39;102334.36;1794636;79;21612;-89
2021/03/29 19:17:59;;;;;;;11.10;6.97;;;;;;;6.19;75.68;102334.25;1780968;79;21342;-88
2021/03/29 19:20:27;;;;;;;9.63;6.22;;;;;;;6.07;75.68;102331.58;1780726;79;21151;-89
2021/03/29 19:22:55;;;;;;;10.80;6.22;;;;;;;5.98;75.74;102339.09;1778277;79;21158;-89
2021/03/29 19:25:25;;;;;;;7.92;5.42;;;;;;;5.90;75.77;102334.59;1773399;79;21143;-89
2021/03/29 19:27:54;;;;;;;6.90;4.87;;;;;;;5.82;76.56;102332.66;1812819;79;21052;-89
2021/03/29 19:30:23;;;;;;;7.05;5.40;;;;;;;5.74;78.80;102331.59;1790285;79;21385;-89
2021/03/29 19:32:52;;;;;;;10.13;5.40;;;;;;;5.68;79.07;102333.89;1812795;79;21226;-89
2021/03/29 19:35:22;;;;;;;6.78;5.22;;;;;;;5.65;77.74;102342.17;1774386;79;21127;-88
2021/03/29 19:37:51;;;;;;;8.33;4.90;;;;;;;5.59;77.69;102344.47;1761600;80;21100;-88
2021/03/29 19:40:19;;;;;;;6.35;4.87;;;;;;;5.54;78.43;102345.05;1755059;80;21239;-88
2021/03/29 19:42:48;;;;;;;9.58;5.92;;;;;;;5.51;79.46;102347.27;1723544;82;21365;-89
2021/03/29 19:45:17;;;;;;;13.30;6.90;;;;;;;5.49;77.95;102352.05;1746564;80;21235;-89
2021/03/29 19:47:45;;;;;;;14.53;7.70;;;;;;;5.47;82.02;102362.89;1768675;79;21107;-88
2021/03/29 19:50:17;;;;;;;14.55;7.85;;;;;;;5.47;80.59;102361.60;1793117;79;21325;-88
2021/03/29 19:52:45;;;;;;;12.78;7.58;;;;;;;5.46;79.53;102358.15;1791053;79;21143;-89
2021/03/29 19:55:16;;;;;;;14.05;8.90;;;;;;;5.46;78.81;102358.61;1797385;78;21361;-88
2021/03/29 19:57:45;;;;;;;17.55;11.43;;;;;;;5.43;78.83;102365.13;1793744;78;21191;-88
2021/03/29 20:00:19;;;;;;;24.15;13.15;;;;;;;5.38;78.03;102366.54;1792814;79;21139;-88
2021/03/29 20:03:00;;;;;;;18.23;10.32;;;;;;;5.35;81.45;102361.02;1785584;79;21828;-89
2021/03/29 20:05:35;;;;;;;11.80;7.83;;;;;;;5.34;80.46;102373.52;1780287;78;21193;-90
2021/03/29 20:10:28;;;;;;;12.07;7.55;;;;;;;5.32;82.39;102377.03;1757934;79;21171;-89
2021/03/29 20:12:59;;;;;;;18.65;7.87;;;;;;;5.30;82.57;102383.54;1781623;79;21138;-89
2021/03/29 20:15:33;;;;;;;17.15;8.25;;;;;;;5.27;80.50;102390.52;1783180;79;21141;-90
2021/03/29 20:18:34;;;;;;;15.75;8.18;;;;;;;5.23;79.67;102387.16;1804905;79;21167;-90
2021/03/29 20:21:13;;;;;;;13.55;8.05;;;;;;;5.18;78.29;102391.57;1782675;79;21361;-88
2021/03/29 20:23:43;;;;;;;18.55;8.90;;;;;;;5.12;79.17;102387.84;1773140;81;21122;-90
2021/03/29 20:26:12;;;;;;;21.90;8.38;;;;;;;5.07;78.78;102385.83;1749654;81;21160;-90
2021/03/29 20:28:41;;;;;;;22.13;9.10;;;;;;;5.03;82.97;102385.89;1773261;81;21162;-90
2021/03/29 20:31:12;;;;;;;14.23;7.97;;;;;;;4.99;81.63;102389.44;1774736;79;21157;-90
2021/03/29 20:33:44;;;;;;;11.95;7.08;;;;;;;4.93;81.95;102388.72;1778276;79;21371;-89
2021/03/29 20:36:41;;;;;;;16.57;9.10;;;;;;;4.86;86.87;102384.13;1805129;79;21473;-89
2021/03/29 20:39:16;;;;;;;12.55;9.03;;;;;;;4.80;84.46;102385.56;1804590;79;21148;-89
2021/03/29 20:41:46;;;;;;;13.78;9.38;;;;;;;4.70;85.50;102382.36;1804943;79;21190;-90
2021/03/29 20:44:19;;;;;;;14.28;8.78;;;;;;;4.62;85.84;102392.83;1770281;79;21112;-90
2021/03/29 20:46:47;;;;;;;27.20;12.40;;;;;;;4.55;87.00;102389.55;1780370;79;22249;-89
2021/03/29 20:49:19;;;;;;;39.98;16.50;;;;;;;4.53;91.39;102399.47;1775730;79;21152;-89
2021/03/29 20:51:51;;;;;;;30.67;12.67;;;;;;;4.48;91.93;102394.44;1761075;81;21144;-90
2021/03/29 20:57:10;;;;;;;64.58;20.45;;;;;;;4.37;99.38;102397.21;1835859;77;22268;-89
2021/03/29 21:03:31;;;;;;;27.07;12.30;;;;;;;4.33;96.00;102398.59;1784837;79;21362;-89
2021/03/29 21:05:59;;;;;;;21.77;10.88;;;;;;;4.20;100.00;102403.17;1784638;80;21151;-89
2021/03/29 21:08:28;;;;;;;23.47;11.33;;;;;;;4.20;100.00;102403.17;1784707;80;21129;-89
2021/03/29 21:10:58;;;;;;;16.37;9.60;;;;;;;4.15;100.00;102408.84;1784910;80;21487;-89
2021/03/29 21:13:26;;;;;;;17.80;8.80;;;;;;;4.09;100.00;102402.06;1784850;80;21669;-89
2021/03/29 21:15:55;;;;;;;12.28;7.83;;;;;;;4.05;100.00;102410.30;1784508;80;21358;-88
2021/03/29 21:18:24;;;;;;;16.02;8.35;;;;;;;3.96;100.00;102402.77;1784566;79;21008;-89
2021/03/29 21:20:52;;;;;;;17.02;8.48;;;;;;;3.89;99.50;102408.88;1784613;80;21134;-89
2021/03/29 21:26:47;;;;;;;11.63;8.00;;;;;;;3.76;100.00;102409.57;1783134;80;21120;-89
2021/03/29 21:29:15;;;;;;;17.80;8.55;;;;;;;3.68;100.00;102409.69;1784597;80;21370;-89
2021/03/29 21:31:47;;;;;;;17.65;9.43;;;;;;;3.64;100.00;102405.48;1784497;80;21123;-89
2021/03/29 21:34:18;;;;;;;18.57;9.13;;;;;;;3.62;100.00;102404.66;1784060;80;21088;-89
2021/03/29 21:36:50;;;;;;;17.90;10.40;;;;;;;3.56;100.00;102409.47;1784736;80;21155;-89
2021/03/29 21:39:19;;;;;;;34.75;12.82;;;;;;;3.51;99.93;102407.41;1775095;80;21143;-89
2021/03/29 21:41:48;;;;;;;27.07;13.00;;;;;;;3.46;98.19;102402.34;1778952;80;21421;-90
2021/03/29 21:44:17;;;;;;;18.70;10.25;;;;;;;3.41;97.60;102409.72;1784488;80;21150;-89
2021/03/29 21:46:46;;;;;;;16.93;10.68;;;;;;;3.35;100.00;102412.41;1784606;80;21144;-89
2021/03/29 21:49:15;;;;;;;16.40;10.38;;;;;;;3.30;100.00;102412.47;1773458;80;21147;-90
2021/03/29 21:51:45;;;;;;;21.17;10.65;;;;;;;3.25;100.00;102419.40;1771683;80;21162;-90
2021/03/29 21:54:14;;;;;;;18.15;9.93;;;;;;;3.21;100.00;102426.77;1771744;81;21424;-90
2021/03/29 21:56:45;;;;;;;16.45;10.15;;;;;;;3.14;100.00;102421.72;1769617;81;21179;-90
2021/03/29 21:59:19;;;;;;;20.17;10.10;;;;;;;3.09;100.00;102418.80;1769168;80;21226;-90
2021/03/29 22:01:55;;;;;;;31.70;14.25;;;;;;;3.05;100.00;102419.70;1779969;80;21559;-89
2021/03/29 22:04:30;;;;;;;87.70;29.48;;;;;;;3.03;100.00;102428.73;1719899;83;21152;-89
2021/03/29 22:07:00;;;;;;;41.45;16.52;;;;;;;3.00;100.00;102427.52;1749410;82;21385;-89
2021/03/29 22:09:28;;;;;;;22.77;11.93;;;;;;;2.94;100.00;102431.44;1783858;80;21139;-89
2021/03/29 22:11:58;;;;;;;19.87;11.10;;;;;;;2.92;100.00;102434.05;1783740;80;21167;-89
2021/03/29 22:14:26;;;;;;;12.82;8.73;;;;;;;2.91;100.00;102439.22;1784174;80;21115;-90
2021/03/29 22:16:55;;;;;;;14.43;8.98;;;;;;;2.90;100.00;102443.95;1784040;80;21569;-89
2021/03/29 22:19:32;;;;;;;14.80;8.75;;;;;;;2.88;100.00;102446.55;1783959;80;21202;-89
2021/03/29 22:22:06;;;;;;;43.40;18.30;;;;;;;2.84;100.00;102445.71;1782751;80;21159;-89
2021/03/29 22:24:37;;;;;;;25.00;12.25;;;;;;;2.83;100.00;102448.31;1760450;80;21175;-89
2021/03/29 22:27:11;;;;;;;16.65;10.48;;;;;;;2.83;100.00;102449.19;1753068;81;21209;-90
2021/03/29 22:29:50;;;;;;;16.67;10.15;;;;;;;2.81;100.00;102453.91;1752994;81;21139;-88
2021/03/29 22:32:20;;;;;;;16.77;10.48;;;;;;;2.79;100.00;102450.08;1748713;81;21551;-88
2021/03/29 22:39:34;;;;;;;17.92;9.30;;;;;;;2.91;100.00;102435.36;1842020;77;21888;-88
2021/03/29 22:42:24;;;;;;;33.90;15.63;;;;;;;2.87;100.00;102438.83;1814514;78;21131;-89
2021/03/29 22:44:43;;;;;;;17.85;9.88;;;;;;;2.84;100.00;102433.30;1814260;77;21359;-89
2021/03/29 22:47:39;;;;;;;21.87;10.03;;;;;;;2.82;100.00;102429.47;1815751;78;20996;-89
2021/03/29 22:50:12;;;;;;;24.07;11.05;;;;;;;2.81;100.00;102441.91;1815681;79;21163;-89
2021/03/29 22:56:11;;;;;;;16.35;9.50;;;;;;;2.69;100.00;102435.62;1815687;77;21342;-89
2021/03/29 22:58:40;;;;;;;16.80;8.20;;;;;;;2.56;100.00;102437.94;1815625;77;21311;-89
2021/03/29 23:01:09;;;;;;;15.00;8.23;;;;;;;2.47;100.00;102434.61;1815576;79;21547;-89
2021/03/29 23:07:35;;;;;;;10.90;7.20;;;;;;;2.43;100.00;102438.10;1815737;78;21670;-91
2021/03/29 23:10:06;;;;;;;17.62;8.23;;;;;;;2.35;100.00;102443.32;1815937;79;21116;-90
2021/03/29 23:12:38;;;;;;;15.70;8.30;;;;;;;2.28;100.00;102442.14;1815826;78;21473;-89
2021/03/29 23:15:08;;;;;;;11.48;7.05;;;;;;;2.24;100.00;102445.17;1815422;78;21457;-91
2021/03/29 23:17:36;;;;;;;12.07;7.60;;;;;;;2.15;100.00;102439.69;1814284;79;21084;-89
2021/03/29 23:20:34;;;;;;;12.30;7.30;;;;;;;2.07;100.00;102440.64;1815419;77;21544;-89
2021/03/29 23:23:02;;;;;;;13.78;7.33;;;;;;;1.97;100.00;102444.58;1815516;78;21135;-90
2021/03/29 23:26:00;;;;;;;34.58;18.75;;;;;;;1.89;100.00;102451.06;1815603;79;21123;-89
2021/03/29 23:28:31;;;;;;;12.60;7.60;;;;;;;1.85;100.00;102447.25;1815466;79;21164;-90
2021/03/29 23:31:00;;;;;;;17.02;7.92;;;;;;;1.80;100.00;102449.02;1815636;77;21560;-90
2021/03/29 23:33:28;;;;;;;12.30;7.42;;;;;;;1.74;100.00;102448.63;1815662;77;21160;-90
2021/03/29 23:36:25;;;;;;;13.05;7.92;;;;;;;1.68;100.00;102456.40;1815553;79;21139;-89
2021/03/29 23:38:54;;;;;;;19.92;11.28;;;;;;;1.62;100.00;102453.89;1811740;79;21587;-90
2021/03/29 23:41:23;;;;;;;13.05;8.55;;;;;;;1.57;100.00;102457.33;1810325;79;21155;-90
2021/03/29 23:43:51;;;;;;;12.18;7.53;;;;;;;1.55;100.00;102456.92;1810386;78;21128;-90
2021/03/29 23:46:20;;;;;;;13.98;7.53;;;;;;;1.52;100.00;102464.23;1813432;78;21604;-90
2021/03/29 23:48:49;;;;;;;16.90;9.10;;;;;;;1.51;100.00;102461.23;1815351;79;21112;-90
2021/03/29 23:51:52;;;;;;;24.40;12.47;;;;;;;1.51;100.00;102456.55;1815102;77;21044;-90
2021/03/29 23:54:27;;;;;;;52.80;26.65;;;;;;;1.52;100.00;102460.37;1815025;79;21148;-90
2021/03/29 23:57:01;;;;;;;67.42;32.90;;;;;;;1.51;100.00;102465.09;1815210;79;21183;-90
2021/03/29 23:59:32;;;;;;;38.83;17.80;;;;;;;1.51;100.00;102466.38;1815097;78;21084;-90
